createdAt,value
2018-09-12T00:00:14.361Z,23.80
2018-09-12T00:02:45.678Z,23.50
2018-09-12T00:05:17.555Z,23.20
2018-09-12T00:07:48.866Z,23.30
2018-09-12T00:10:20.099Z,23.40
2018-09-12T00:12:52.239Z,23.40
2018-09-12T00:15:23.474Z,23.50
2018-09-12T00:17:55.388Z,23.20
2018-09-12T00:20:26.931Z,23.50
2018-09-12T00:22:57.975Z,23.50
2018-09-12T00:25:29.005Z,23.60
2018-09-12T00:28:00.234Z,23.70
2018-09-12T00:30:31.180Z,24.00
2018-09-12T00:33:03.104Z,23.60
2018-09-12T00:35:34.594Z,23.30
2018-09-12T00:38:06.203Z,23.50
2018-09-12T00:40:37.247Z,23.60
2018-09-12T00:43:08.794Z,23.60
2018-09-12T00:45:40.153Z,23.80
2018-09-12T00:48:12.804Z,23.90
2018-09-12T00:50:43.822Z,24.00
2018-09-12T00:53:14.952Z,24.10
2018-09-12T00:55:46.139Z,24.00
2018-09-12T00:58:17.545Z,23.70
2018-09-12T01:00:49.776Z,23.50
2018-09-12T01:03:21.053Z,23.30
2018-09-12T01:05:52.375Z,23.60
2018-09-12T01:08:23.616Z,23.50
2018-09-12T01:10:55.050Z,23.50
2018-09-12T01:13:26.225Z,23.50
2018-09-12T01:15:57.255Z,23.60
2018-09-12T01:18:28.826Z,23.70
2018-09-12T01:20:59.835Z,23.80
2018-09-12T01:23:31.139Z,23.90
2018-09-12T01:26:02.317Z,23.70
2018-09-12T01:28:33.346Z,23.60
2018-09-12T01:31:04.651Z,23.50
2018-09-12T01:33:36.923Z,23.60
2018-09-12T01:36:09.730Z,23.60
2018-09-12T01:38:40.803Z,23.40
2018-09-12T01:41:11.904Z,23.40
2018-09-12T01:43:43.452Z,23.30
2018-09-12T01:46:14.895Z,23.30
2018-09-12T01:48:46.056Z,23.30
2018-09-12T01:51:17.460Z,23.10
2018-09-12T01:53:49.149Z,23.00
2018-09-12T01:56:20.275Z,23.40
2018-09-12T01:58:51.482Z,23.50
2018-09-12T02:01:22.759Z,23.60
2018-09-12T02:03:53.762Z,23.60
2018-09-12T02:06:25.330Z,23.70
2018-09-12T02:08:56.526Z,23.80
2018-09-12T02:11:27.891Z,23.60
2018-09-12T02:13:59.325Z,23.50
2018-09-12T02:16:30.756Z,23.50
2018-09-12T02:19:01.672Z,23.60
2018-09-12T02:21:34.818Z,23.00
2018-09-12T02:24:06.015Z,22.80
2018-09-12T02:26:37.467Z,22.90
2018-09-12T02:29:08.678Z,23.00
2018-09-12T02:31:39.809Z,23.10
2018-09-12T02:34:10.865Z,22.90
2018-09-12T02:36:42.178Z,22.90
2018-09-12T02:39:13.343Z,22.90
2018-09-12T02:41:44.879Z,23.00
2018-09-12T02:44:16.140Z,22.80
2018-09-12T02:46:47.605Z,22.80
2018-09-12T02:49:18.849Z,22.80
2018-09-12T02:51:50.142Z,22.70
2018-09-12T02:54:21.771Z,22.70
2018-09-12T02:56:53.008Z,22.70
2018-09-12T02:59:24.449Z,22.50
2018-09-12T03:01:55.764Z,22.50
2018-09-12T03:04:26.927Z,22.50
2018-09-12T03:06:58.403Z,22.40
2018-09-12T03:09:29.757Z,22.30
2018-09-12T03:12:00.928Z,22.20
2018-09-12T03:14:32.678Z,22.20
2018-09-12T03:17:04.569Z,22.10
2018-09-12T03:19:35.760Z,22.10
2018-09-12T03:22:07.043Z,22.00
2018-09-12T03:24:38.199Z,22.00
2018-09-12T03:27:09.434Z,22.00
2018-09-12T03:29:40.537Z,22.00
2018-09-12T03:32:11.744Z,22.00
2018-09-12T03:34:42.912Z,21.70
2018-09-12T03:37:14.306Z,21.70
2018-09-12T03:39:45.533Z,21.70
2018-09-12T03:42:16.747Z,21.80
2018-09-12T03:44:48.124Z,21.80
2018-09-12T03:47:19.738Z,21.70
2018-09-12T03:49:50.805Z,21.90
2018-09-12T03:52:22.160Z,21.90
2018-09-12T03:54:53.602Z,21.90
2018-09-12T03:57:24.673Z,21.90
2018-09-12T03:59:55.803Z,21.90
2018-09-12T04:02:26.907Z,21.70
2018-09-12T04:04:58.106Z,21.60
2018-09-12T04:07:29.645Z,21.60
2018-09-12T04:10:00.761Z,21.70
2018-09-12T04:12:32.015Z,21.70
2018-09-12T04:15:03.125Z,21.70
2018-09-12T04:17:38.305Z,21.70
2018-09-12T04:20:09.403Z,21.70
2018-09-12T04:22:40.742Z,21.80
2018-09-12T04:25:12.292Z,21.90
2018-09-12T04:27:43.434Z,21.90
2018-09-12T04:30:14.442Z,21.90
2018-09-12T04:32:45.636Z,21.80
2018-09-12T04:35:16.623Z,21.80
2018-09-12T04:37:48.252Z,21.90
2018-09-12T04:40:19.523Z,21.90
2018-09-12T04:42:50.975Z,21.90
2018-09-12T04:45:22.389Z,21.90
2018-09-12T04:47:53.965Z,21.80
2018-09-12T04:50:25.066Z,21.80
2018-09-12T04:52:56.835Z,21.90
2018-09-12T04:55:27.785Z,22.00
2018-09-12T04:57:59.000Z,21.80
2018-09-12T05:00:30.119Z,21.90
2018-09-12T05:03:01.176Z,21.90
2018-09-12T05:05:32.521Z,21.90
2018-09-12T05:08:03.869Z,21.80
2018-09-12T05:10:34.969Z,21.90
2018-09-12T05:13:06.102Z,21.80
2018-09-12T05:15:37.172Z,21.60
2018-09-12T05:18:08.328Z,21.70
2018-09-12T05:20:39.658Z,21.90
2018-09-12T05:23:10.890Z,22.10
2018-09-12T05:25:42.490Z,22.00
2018-09-12T05:28:14.014Z,21.90
2018-09-12T05:30:45.126Z,21.90
2018-09-12T05:33:16.413Z,21.80
2018-09-12T05:35:47.772Z,21.70
2018-09-12T05:38:19.157Z,21.70
2018-09-12T05:40:50.336Z,21.80
2018-09-12T05:43:21.374Z,21.70
2018-09-12T05:45:52.092Z,22.00
2018-09-12T05:48:23.447Z,22.10
2018-09-12T05:50:54.303Z,22.10
2018-09-12T05:53:25.411Z,22.20
2018-09-12T05:55:56.244Z,22.10
2018-09-12T05:58:27.035Z,22.20
2018-09-12T06:00:57.832Z,22.00
2018-09-12T06:03:28.802Z,21.90
2018-09-12T06:05:59.719Z,21.80
2018-09-12T06:08:31.187Z,21.80
2018-09-12T06:11:02.103Z,21.90
2018-09-12T06:13:33.006Z,22.00
2018-09-12T06:16:03.968Z,22.00
2018-09-12T06:18:35.038Z,21.90
2018-09-12T06:21:05.892Z,21.90
2018-09-12T06:23:36.900Z,22.10
2018-09-12T06:26:07.896Z,21.80
2018-09-12T06:28:38.826Z,21.70
2018-09-12T06:31:09.537Z,21.80
2018-09-12T06:33:40.599Z,21.80
2018-09-12T06:36:11.507Z,21.70
2018-09-12T06:38:42.677Z,21.70
2018-09-12T06:41:13.600Z,21.80
2018-09-12T06:43:45.159Z,21.90
2018-09-12T06:46:16.036Z,21.90
2018-09-12T06:48:47.179Z,22.00
2018-09-12T06:51:18.116Z,22.00
2018-09-12T06:53:49.009Z,21.90
2018-09-12T06:56:20.125Z,21.80
2018-09-12T06:58:50.936Z,21.70
2018-09-12T07:01:21.879Z,21.70
2018-09-12T07:03:52.848Z,21.80
2018-09-12T07:06:23.672Z,22.10
2018-09-12T07:08:55.018Z,22.10
2018-09-12T07:11:25.948Z,22.00
2018-09-12T07:13:56.892Z,22.10
2018-09-12T07:16:27.832Z,22.00
2018-09-12T07:18:58.629Z,21.90
2018-09-12T07:21:29.424Z,21.90
2018-09-12T07:24:00.300Z,22.00
2018-09-12T07:26:30.885Z,22.00
2018-09-12T07:29:02.202Z,22.00
2018-09-12T07:31:33.020Z,22.00
2018-09-12T07:34:03.924Z,22.00
2018-09-12T07:36:34.654Z,22.00
2018-09-12T07:39:06.583Z,22.00
2018-09-12T07:41:37.597Z,21.90
2018-09-12T07:44:09.132Z,21.90
2018-09-12T07:46:39.865Z,21.80
2018-09-12T07:49:10.872Z,21.80
2018-09-12T07:51:41.840Z,21.70
2018-09-12T07:54:12.755Z,21.70
2018-09-12T07:56:43.844Z,21.70
2018-09-12T07:59:14.681Z,21.60
2018-09-12T08:01:45.700Z,21.60
2018-09-12T08:04:16.564Z,21.50
2018-09-12T08:06:47.588Z,21.50
2018-09-12T08:09:18.827Z,21.60
2018-09-12T08:11:49.859Z,21.50
2018-09-12T08:14:20.567Z,21.50
2018-09-12T08:16:51.589Z,21.60
2018-09-12T08:19:22.520Z,21.50
2018-09-12T08:21:53.549Z,21.60
2018-09-12T08:24:24.185Z,21.60
2018-09-12T08:26:55.261Z,21.50
2018-09-12T08:29:26.328Z,21.40
2018-09-12T08:31:57.200Z,21.40
2018-09-12T08:34:28.129Z,21.40
2018-09-12T08:36:59.061Z,21.50
2018-09-12T08:39:29.836Z,21.60
2018-09-12T08:42:00.732Z,21.60
2018-09-12T08:44:31.686Z,21.50
2018-09-12T08:47:02.631Z,21.30
2018-09-12T08:49:34.042Z,21.30
2018-09-12T08:52:04.854Z,21.40
2018-09-12T08:54:35.665Z,21.40
2018-09-12T08:57:06.774Z,21.50
2018-09-12T08:59:37.500Z,21.40
2018-09-12T09:02:08.490Z,21.30
2018-09-12T09:04:39.296Z,21.30
2018-09-12T09:07:10.312Z,21.40
2018-09-12T09:09:41.675Z,21.30
2018-09-12T09:12:12.624Z,21.30
2018-09-12T09:14:43.900Z,21.10
2018-09-12T09:17:14.884Z,21.10
2018-09-12T09:19:45.806Z,21.20
2018-09-12T09:22:16.884Z,21.10
2018-09-12T09:24:47.890Z,21.10
2018-09-12T09:27:18.869Z,21.10
2018-09-12T09:29:50.305Z,21.10
2018-09-12T09:32:21.217Z,21.10
2018-09-12T09:34:52.055Z,21.20
2018-09-12T09:37:22.897Z,21.10
2018-09-12T09:39:53.717Z,21.00
2018-09-12T09:42:24.747Z,21.00
2018-09-12T09:44:55.584Z,21.00
2018-09-12T09:47:26.612Z,20.80
2018-09-12T09:49:57.863Z,20.80
2018-09-12T09:52:29.393Z,20.80
2018-09-12T09:55:00.366Z,20.90
2018-09-12T09:57:31.379Z,20.90
2018-09-12T10:00:02.118Z,21.10
2018-09-12T10:02:37.370Z,21.00
2018-09-12T10:05:12.265Z,21.00
2018-09-12T10:07:50.423Z,20.90
2018-09-12T10:10:21.714Z,20.90
2018-09-12T10:12:52.808Z,21.00
2018-09-12T10:15:23.732Z,20.70
2018-09-12T10:17:54.667Z,20.80
2018-09-12T10:20:25.367Z,20.90
2018-09-12T10:22:56.171Z,20.90
2018-09-12T10:25:27.033Z,20.90
2018-09-12T10:27:58.305Z,20.90
2018-09-12T10:30:29.444Z,21.00
2018-09-12T10:33:00.444Z,21.10
2018-09-12T10:35:31.329Z,21.00
2018-09-12T10:38:02.361Z,20.90
2018-09-12T10:40:33.049Z,20.90
2018-09-12T10:43:03.916Z,20.90
2018-09-12T10:45:34.716Z,21.00
2018-09-12T10:48:05.668Z,21.10
2018-09-12T10:50:36.837Z,21.10
2018-09-12T10:53:07.815Z,21.10
2018-09-12T10:55:38.537Z,21.10
2018-09-12T10:58:09.454Z,21.00
2018-09-12T11:00:40.159Z,21.00
2018-09-12T11:03:11.398Z,20.90
2018-09-12T11:05:42.300Z,20.90
2018-09-12T11:08:13.128Z,20.90
2018-09-12T11:10:44.141Z,21.10
2018-09-12T11:13:15.153Z,21.10
2018-09-12T11:15:45.935Z,21.10
2018-09-12T11:18:16.854Z,21.10
2018-09-12T11:20:47.652Z,21.10
2018-09-12T11:23:18.467Z,21.10
2018-09-12T11:25:49.177Z,21.20
2018-09-12T11:28:20.171Z,21.10
2018-09-12T11:30:52.000Z,21.10
2018-09-12T11:33:23.039Z,21.20
2018-09-12T11:35:53.844Z,21.10
2018-09-12T11:38:24.665Z,21.20
2018-09-12T11:40:55.481Z,21.10
2018-09-12T11:43:26.575Z,21.10
2018-09-12T11:45:57.508Z,21.10
2018-09-12T11:48:28.232Z,21.10
2018-09-12T11:50:59.280Z,20.90
2018-09-12T11:53:30.393Z,20.70
2018-09-12T11:56:01.133Z,20.60
2018-09-12T11:58:32.197Z,20.60
2018-09-12T12:01:03.032Z,20.60
2018-09-12T12:03:33.993Z,20.60
2018-09-12T12:06:04.858Z,20.40
2018-09-12T12:08:36.257Z,20.10
2018-09-12T12:11:07.336Z,20.10
2018-09-12T12:13:38.187Z,20.20
2018-09-12T12:16:09.023Z,20.30
2018-09-12T12:18:39.791Z,20.30
2018-09-12T12:21:10.720Z,20.20
2018-09-12T12:23:41.794Z,20.10
2018-09-12T12:26:12.537Z,19.90
2018-09-12T12:28:43.480Z,19.90
2018-09-12T12:31:14.778Z,19.90
2018-09-12T12:33:45.630Z,19.80
2018-09-12T12:36:16.562Z,19.80
2018-09-12T12:38:47.373Z,20.00
2018-09-12T12:41:18.463Z,20.10
2018-09-12T12:43:49.531Z,20.10
2018-09-12T12:46:20.456Z,20.20
2018-09-12T12:48:51.381Z,20.30
2018-09-12T12:51:22.439Z,20.20
2018-09-12T12:53:53.458Z,20.20
2018-09-12T12:56:24.206Z,20.20
2018-09-12T12:58:55.468Z,20.30
2018-09-12T13:01:26.542Z,20.40
2018-09-12T13:03:57.809Z,20.60
2018-09-12T13:06:28.670Z,20.90
2018-09-12T13:09:00.151Z,21.00
2018-09-12T13:11:31.780Z,21.00
2018-09-12T13:14:02.806Z,21.10
2018-09-12T13:16:33.696Z,21.10
2018-09-12T13:19:04.765Z,21.00
2018-09-12T13:21:35.605Z,21.00
2018-09-12T13:24:06.870Z,21.00
2018-09-12T13:26:37.802Z,21.00
2018-09-12T13:29:09.029Z,21.10
2018-09-12T13:31:40.109Z,21.10
2018-09-12T13:34:11.129Z,21.20
2018-09-12T13:36:42.864Z,21.20
2018-09-12T13:39:16.878Z,21.30
2018-09-12T13:41:47.954Z,21.30
2018-09-12T13:44:18.888Z,21.30
2018-09-12T13:46:49.987Z,21.20
2018-09-12T13:49:20.875Z,21.10
2018-09-12T13:51:52.501Z,21.00
2018-09-12T13:54:23.402Z,21.10
2018-09-12T13:56:54.285Z,20.90
2018-09-12T13:59:25.864Z,20.90
2018-09-12T14:01:57.007Z,20.80
2018-09-12T14:04:27.835Z,20.80
2018-09-12T14:06:59.443Z,20.90
2018-09-12T14:09:30.509Z,21.20
2018-09-12T14:12:01.706Z,21.80
2018-09-12T14:14:32.538Z,22.30
2018-09-12T14:17:03.342Z,22.60
2018-09-12T14:19:34.426Z,23.10
2018-09-12T14:22:05.595Z,23.70
2018-09-12T14:24:37.517Z,24.30
2018-09-12T14:27:08.608Z,24.80
2018-09-12T14:29:39.450Z,24.90
2018-09-12T14:32:10.544Z,25.10
2018-09-12T14:34:41.772Z,25.10
2018-09-12T14:37:12.994Z,25.20
2018-09-12T14:39:46.989Z,24.90
2018-09-12T14:42:19.823Z,25.10
2018-09-12T14:44:50.815Z,25.20
2018-09-12T14:47:22.034Z,26.00
2018-09-12T14:49:52.839Z,25.60
2018-09-12T14:52:24.072Z,25.80
2018-09-12T14:54:55.000Z,26.20
2018-09-12T14:57:25.974Z,26.50
2018-09-12T14:59:58.172Z,26.80
2018-09-12T15:02:31.366Z,26.20
2018-09-12T15:05:03.207Z,26.30
2018-09-12T15:07:34.291Z,26.90
2018-09-12T15:10:05.293Z,27.20
2018-09-12T15:12:36.451Z,27.80
2018-09-12T15:15:08.305Z,27.90
2018-09-12T15:17:41.441Z,28.40
2018-09-12T15:20:12.970Z,28.10
2018-09-12T15:22:46.089Z,28.40
2018-09-12T15:25:17.950Z,28.60
2018-09-12T15:27:49.020Z,28.40
2018-09-12T15:30:20.011Z,27.80
2018-09-12T15:32:52.547Z,28.10
2018-09-12T15:35:25.010Z,27.80
2018-09-12T15:37:55.864Z,27.40
2018-09-12T15:40:28.305Z,27.80
2018-09-12T15:43:00.193Z,28.30
2018-09-12T15:45:31.181Z,28.70
2018-09-12T15:48:02.152Z,28.60
2018-09-12T15:50:33.243Z,29.10
2018-09-12T15:53:04.243Z,29.80
2018-09-12T15:55:35.407Z,29.40
2018-09-12T15:58:06.358Z,28.80
2018-09-12T16:00:38.273Z,29.00
2018-09-12T16:03:09.161Z,29.40
2018-09-12T16:05:41.083Z,28.80
2018-09-12T16:08:11.936Z,27.90
2018-09-12T16:10:43.628Z,27.20
2018-09-12T16:13:15.860Z,26.50
2018-09-12T16:15:47.894Z,26.80
2018-09-12T16:18:19.402Z,27.30
2018-09-12T16:20:50.334Z,27.80
2018-09-12T16:23:21.722Z,27.70
2018-09-12T16:25:53.760Z,28.50
2018-09-12T16:28:24.680Z,28.70
2018-09-12T16:30:55.546Z,28.20
2018-09-12T16:33:26.692Z,28.70
2018-09-12T16:35:57.594Z,29.60
2018-09-12T16:38:28.228Z,30.00
2018-09-12T16:40:59.162Z,29.90
2018-09-12T16:43:30.213Z,29.50
2018-09-12T16:46:02.440Z,29.60
2018-09-12T16:48:36.037Z,29.30
2018-09-12T16:51:06.707Z,29.80
2018-09-12T16:53:37.636Z,30.40
2018-09-12T16:56:08.711Z,30.80
2018-09-12T16:58:39.655Z,30.30
2018-09-12T17:01:10.734Z,30.90
2018-09-12T17:03:42.864Z,31.40
2018-09-12T17:06:15.027Z,31.40
2018-09-12T17:08:45.992Z,31.80
2018-09-12T17:11:17.049Z,31.00
2018-09-12T17:13:48.794Z,30.10
2018-09-12T17:16:20.642Z,30.30
2018-09-12T17:18:52.580Z,30.80
2018-09-12T17:21:24.279Z,31.20
2018-09-12T17:23:56.334Z,32.00
2018-09-12T17:26:28.364Z,31.80
2018-09-12T17:28:59.796Z,32.20
2018-09-12T17:31:30.761Z,32.20
2018-09-12T17:34:01.617Z,32.50
2018-09-12T17:36:35.726Z,32.90
2018-09-12T17:39:08.661Z,32.90
2018-09-12T17:41:40.355Z,31.90
2018-09-12T17:44:11.498Z,31.20
2018-09-12T17:46:43.101Z,30.60
2018-09-12T17:49:15.177Z,30.80
2018-09-12T17:51:47.541Z,30.70
2018-09-12T17:54:19.791Z,30.80
2018-09-12T17:56:51.076Z,31.40
2018-09-12T17:59:23.148Z,31.30
2018-09-12T18:01:54.063Z,31.60
2018-09-12T18:04:25.013Z,31.80
2018-09-12T18:06:55.892Z,32.10
2018-09-12T18:09:27.733Z,32.30
2018-09-12T18:11:59.132Z,31.90
2018-09-12T18:14:30.445Z,32.20
2018-09-12T18:17:01.906Z,32.60
2018-09-12T18:19:33.164Z,32.60
2018-09-12T18:22:04.050Z,32.50
2018-09-12T18:24:35.900Z,33.00
2018-09-12T18:27:06.749Z,32.10
2018-09-12T18:29:37.572Z,32.80
2018-09-12T18:32:08.542Z,33.10
2018-09-12T18:34:39.604Z,33.10
2018-09-12T18:37:10.629Z,32.80
2018-09-12T18:39:41.486Z,32.80
2018-09-12T18:42:12.422Z,32.80
2018-09-12T18:44:43.912Z,32.80
2018-09-12T18:47:14.626Z,33.10
2018-09-12T18:49:46.032Z,32.50
2018-09-12T18:52:16.912Z,31.60
2018-09-12T18:54:48.176Z,31.50
2018-09-12T18:57:18.947Z,31.50
2018-09-12T18:59:50.288Z,31.30
2018-09-12T19:02:20.889Z,31.10
2018-09-12T19:04:51.624Z,30.80
2018-09-12T19:07:22.478Z,29.80
2018-09-12T19:09:53.374Z,29.70
2018-09-12T19:12:23.946Z,29.80
2018-09-12T19:14:56.431Z,29.30
2018-09-12T19:17:27.086Z,29.20
2018-09-12T19:19:58.200Z,29.20
2018-09-12T19:22:31.957Z,29.20
2018-09-12T19:25:02.632Z,29.40
2018-09-12T19:27:33.833Z,28.70
2018-09-12T19:30:04.660Z,28.50
2018-09-12T19:32:35.429Z,28.30
2018-09-12T19:35:06.699Z,28.00
2018-09-12T19:37:37.391Z,28.10
2018-09-12T19:40:09.544Z,28.30
2018-09-12T19:42:40.288Z,27.70
2018-09-12T19:45:13.301Z,27.00
2018-09-12T19:47:44.377Z,27.10
2018-09-12T19:50:15.302Z,25.80
2018-09-12T19:52:46.150Z,25.80
2018-09-12T19:55:17.289Z,26.00
2018-09-12T19:57:48.194Z,26.50
2018-09-12T20:00:20.369Z,26.80
2018-09-12T20:02:51.197Z,26.70
2018-09-12T20:05:25.429Z,26.50
2018-09-12T20:07:56.451Z,26.50
2018-09-12T20:10:27.752Z,26.40
2018-09-12T20:12:58.499Z,26.10
2018-09-12T20:15:29.517Z,25.60
2018-09-12T20:18:01.147Z,25.30
2018-09-12T20:22:35.312Z,25.00
2018-09-12T20:25:06.255Z,24.80
2018-09-12T20:27:37.454Z,24.40
2018-09-12T20:30:08.583Z,23.20
2018-09-12T20:32:39.965Z,22.70
2018-09-12T20:35:11.745Z,22.10
2018-09-12T20:38:49.953Z,20.90
2018-09-12T20:41:20.765Z,20.40
2018-09-12T20:46:04.496Z,20.10
2018-09-12T20:48:35.224Z,20.10
2018-09-12T20:51:05.951Z,20.20
2018-09-12T20:53:37.632Z,20.50
2018-09-12T20:56:09.863Z,20.50
2018-09-12T20:58:40.633Z,20.70
2018-09-12T21:01:11.580Z,21.00
2018-09-12T21:03:42.543Z,21.20
2018-09-12T21:06:13.436Z,21.30
2018-09-12T21:08:44.106Z,21.30
2018-09-12T21:11:22.387Z,21.30
2018-09-12T21:13:54.598Z,21.20
2018-09-12T21:16:27.452Z,21.10
2018-09-12T21:18:58.219Z,21.10
2018-09-12T21:21:29.063Z,20.80
2018-09-12T21:24:00.264Z,20.70
2018-09-12T21:26:31.146Z,20.60
2018-09-12T21:29:01.982Z,20.50
2018-09-12T21:31:33.080Z,20.50
2018-09-12T21:34:11.339Z,20.80
2018-09-12T21:36:42.836Z,21.00
2018-09-12T21:39:13.781Z,21.20
2018-09-12T21:41:45.698Z,21.20
2018-09-12T21:44:16.520Z,21.30
2018-09-12T21:46:47.349Z,21.60
2018-09-12T21:49:18.454Z,21.80
2018-09-12T21:51:49.295Z,21.80
2018-09-12T21:54:20.801Z,22.00
2018-09-12T21:56:51.801Z,21.90
2018-09-12T21:59:24.709Z,21.50
2018-09-12T22:01:56.023Z,21.50
2018-09-12T22:04:28.027Z,21.70
2018-09-12T22:06:58.924Z,21.70
2018-09-12T22:09:29.818Z,21.60
2018-09-12T22:12:00.804Z,21.60
2018-09-12T22:14:31.738Z,21.70
2018-09-12T22:17:03.401Z,21.90
2018-09-12T22:19:35.124Z,22.00
2018-09-12T22:22:07.443Z,22.00
2018-09-12T22:24:39.459Z,22.10
2018-09-12T22:27:10.573Z,22.10
2018-09-12T22:29:41.811Z,22.20
2018-09-12T22:32:13.811Z,22.20
2018-09-12T22:34:45.219Z,22.20
2018-09-12T22:37:16.631Z,22.10
2018-09-12T22:39:47.464Z,22.10
2018-09-12T22:42:18.450Z,22.20
2018-09-12T22:44:49.310Z,22.30
2018-09-12T22:47:21.155Z,22.20
2018-09-12T22:49:52.938Z,22.10
2018-09-12T22:52:25.380Z,22.00
2018-09-12T22:54:56.299Z,21.90
2018-09-12T22:57:27.149Z,21.90
2018-09-12T22:59:58.260Z,21.90
2018-09-12T23:02:29.620Z,21.90
2018-09-12T23:05:00.503Z,21.90
2018-09-12T23:07:32.633Z,21.70
2018-09-12T23:10:06.558Z,21.70
2018-09-12T23:12:37.922Z,21.70
2018-09-12T23:15:09.956Z,21.60
2018-09-12T23:17:42.314Z,21.50
2018-09-12T23:20:13.376Z,21.50
2018-09-12T23:22:45.305Z,21.50
2018-09-12T23:25:16.699Z,21.50
2018-09-12T23:27:47.548Z,21.50
2018-09-12T23:30:18.302Z,21.50
2018-09-12T23:32:50.235Z,21.40
2018-09-12T23:35:20.881Z,21.40
2018-09-12T23:37:53.188Z,21.30
2018-09-12T23:40:23.998Z,21.20
2018-09-12T23:42:56.583Z,21.00
2018-09-12T23:45:27.753Z,20.90
2018-09-12T23:48:06.869Z,20.70
2018-09-12T23:50:38.220Z,20.60
2018-09-12T23:53:11.101Z,20.50
2018-09-12T23:55:46.292Z,20.30
2018-09-12T23:58:18.221Z,20.20
